createdAt,value
2024-03-29T00:02:25.328Z,6.80
2024-03-29T00:04:52.991Z,6.70
2024-03-29T00:07:22.470Z,6.70
2024-03-29T00:09:49.223Z,6.70
2024-03-29T00:12:15.756Z,6.80
2024-03-29T00:14:44.163Z,6.50
2024-03-29T00:17:10.658Z,6.30
2024-03-29T00:19:37.201Z,6.30
2024-03-29T00:22:03.750Z,6.20
2024-03-29T00:24:30.303Z,6.00
2024-03-29T00:26:56.865Z,5.90
2024-03-29T00:29:23.404Z,6.00
2024-03-29T00:31:49.902Z,6.00
2024-03-29T00:34:16.451Z,6.10
2024-03-29T00:36:42.992Z,6.10
2024-03-29T00:39:11.818Z,5.90
2024-03-29T00:41:38.422Z,5.80
2024-03-29T00:44:04.960Z,5.80
2024-03-29T00:46:31.509Z,5.80
2024-03-29T00:48:58.008Z,5.90
2024-03-29T00:51:26.440Z,6.00
2024-03-29T00:53:55.366Z,5.90
2024-03-29T00:56:21.862Z,5.70
2024-03-29T00:58:48.376Z,5.70
2024-03-29T01:01:14.922Z,5.70
2024-03-29T01:03:41.478Z,5.60
2024-03-29T01:06:08.099Z,5.50
2024-03-29T01:08:34.670Z,5.50
2024-03-29T01:11:01.221Z,5.50
2024-03-29T01:13:27.773Z,5.60
2024-03-29T01:15:54.290Z,5.60
2024-03-29T01:18:20.866Z,5.60
2024-03-29T01:20:47.374Z,5.50
2024-03-29T01:23:13.914Z,5.40
2024-03-29T01:25:40.416Z,5.40
2024-03-29T01:28:07.069Z,5.30
2024-03-29T01:30:33.763Z,5.20
2024-03-29T01:33:00.310Z,5.00
2024-03-29T01:35:26.809Z,4.80
2024-03-29T01:37:53.368Z,4.80
2024-03-29T01:40:19.891Z,4.80
2024-03-29T01:42:46.401Z,4.90
2024-03-29T01:45:13.187Z,5.00
2024-03-29T01:47:39.879Z,5.10
2024-03-29T01:50:07.395Z,5.20
2024-03-29T01:52:34.017Z,5.30
2024-03-29T01:55:00.779Z,5.30
2024-03-29T01:57:28.086Z,5.20
2024-03-29T01:59:54.700Z,5.20
2024-03-29T02:02:22.774Z,5.10
2024-03-29T02:04:50.232Z,5.20
2024-03-29T02:07:17.828Z,5.10
2024-03-29T02:09:44.379Z,4.90
2024-03-29T02:12:10.976Z,4.90
2024-03-29T02:14:39.520Z,4.90
2024-03-29T02:17:06.057Z,4.90
2024-03-29T02:19:32.619Z,4.80
2024-03-29T02:22:01.577Z,5.00
2024-03-29T02:24:28.700Z,5.00
2024-03-29T02:26:57.363Z,5.10
2024-03-29T02:29:25.178Z,5.00
2024-03-29T02:31:51.706Z,5.00
2024-03-29T02:34:19.192Z,5.00
2024-03-29T02:36:46.005Z,4.90
2024-03-29T02:39:12.585Z,4.90
2024-03-29T02:41:39.132Z,5.00
2024-03-29T02:44:05.802Z,5.00
2024-03-29T02:46:32.316Z,4.90
2024-03-29T02:48:58.808Z,4.80
2024-03-29T02:51:25.350Z,4.80
2024-03-29T02:53:51.863Z,4.80
2024-03-29T02:56:21.656Z,4.70
2024-03-29T02:58:48.673Z,4.60
2024-03-29T03:01:15.232Z,4.70
2024-03-29T03:03:41.734Z,4.80
2024-03-29T03:06:08.285Z,4.70
2024-03-29T03:08:52.929Z,4.70
2024-03-29T03:11:19.492Z,4.50
2024-03-29T03:13:46.024Z,4.40
2024-03-29T03:16:12.688Z,4.40
2024-03-29T03:18:39.281Z,4.30
2024-03-29T03:21:06.426Z,4.10
2024-03-29T03:23:32.937Z,4.00
2024-03-29T03:26:04.187Z,4.00
2024-03-29T03:28:30.915Z,3.80
2024-03-29T03:30:57.449Z,3.90
2024-03-29T03:33:24.142Z,4.00
2024-03-29T03:35:50.899Z,4.00
2024-03-29T03:38:17.537Z,4.10
2024-03-29T03:40:44.320Z,4.10
2024-03-29T03:43:11.177Z,3.90
2024-03-29T03:45:39.870Z,3.90
2024-03-29T03:48:09.016Z,4.00
2024-03-29T03:50:35.561Z,4.00
2024-03-29T03:53:04.603Z,4.00
2024-03-29T03:55:31.129Z,4.00
2024-03-29T03:57:57.658Z,4.10
2024-03-29T04:00:24.160Z,4.20
2024-03-29T04:02:51.280Z,4.10
2024-03-29T04:05:19.461Z,4.00
2024-03-29T04:07:47.291Z,4.10
2024-03-29T04:10:14.029Z,4.20
2024-03-29T04:12:40.816Z,4.20
2024-03-29T04:15:07.954Z,4.20
2024-03-29T04:17:36.217Z,4.30
2024-03-29T04:20:03.058Z,4.40
2024-03-29T04:22:30.167Z,4.30
2024-03-29T04:24:56.738Z,4.20
2024-03-29T04:27:23.643Z,4.20
2024-03-29T04:29:54.047Z,4.10
2024-03-29T04:32:20.893Z,4.10
2024-03-29T04:34:52.328Z,4.00
2024-03-29T04:37:18.918Z,4.10
2024-03-29T04:39:46.601Z,4.10
2024-03-29T04:42:13.383Z,4.00
2024-03-29T04:44:40.127Z,4.00
2024-03-29T04:47:07.295Z,4.00
2024-03-29T04:49:35.122Z,4.00
2024-03-29T04:52:02.005Z,3.90
2024-03-29T04:54:28.704Z,3.70
2024-03-29T04:56:55.206Z,3.70
2024-03-29T04:59:21.710Z,3.70
2024-03-29T05:01:51.714Z,3.80
2024-03-29T05:04:25.321Z,3.80
2024-03-29T05:06:56.841Z,3.80
2024-03-29T05:09:25.162Z,3.90
2024-03-29T05:11:52.259Z,3.90
2024-03-29T05:14:22.635Z,4.00
2024-03-29T05:16:49.609Z,4.10
2024-03-29T05:19:16.346Z,4.10
2024-03-29T05:21:43.344Z,4.00
2024-03-29T05:24:10.351Z,3.90
2024-03-29T05:26:37.017Z,4.00
2024-03-29T05:29:04.527Z,4.00
2024-03-29T05:31:31.384Z,4.10
2024-03-29T05:33:57.913Z,4.10
2024-03-29T05:36:24.437Z,4.10
2024-03-29T05:38:51.005Z,4.40
2024-03-29T05:41:17.543Z,4.60
2024-03-29T05:43:44.092Z,4.50
2024-03-29T05:46:10.609Z,4.60
2024-03-29T05:48:38.428Z,4.60
2024-03-29T05:51:05.233Z,4.80
2024-03-29T05:53:31.757Z,4.80
2024-03-29T05:55:58.297Z,4.80
2024-03-29T05:58:24.836Z,4.80
2024-03-29T06:00:51.339Z,4.70
2024-03-29T06:03:17.849Z,4.90
2024-03-29T06:05:44.374Z,4.90
2024-03-29T06:08:10.910Z,5.00
2024-03-29T06:10:37.423Z,5.10
2024-03-29T06:13:08.360Z,5.20
2024-03-29T06:15:53.336Z,5.30
2024-03-29T06:18:19.901Z,5.20
2024-03-29T06:20:49.037Z,5.30
2024-03-29T06:23:17.023Z,5.50
2024-03-29T06:25:46.265Z,5.80
2024-03-29T06:28:13.417Z,5.80
2024-03-29T06:30:43.209Z,5.90
2024-03-29T06:33:10.413Z,6.00
2024-03-29T06:35:37.429Z,6.20
2024-03-29T06:38:04.214Z,6.40
2024-03-29T06:40:30.785Z,6.50
2024-03-29T06:42:58.558Z,6.60
2024-03-29T06:45:25.093Z,6.70
2024-03-29T06:47:52.858Z,6.90
2024-03-29T06:50:19.415Z,7.00
2024-03-29T06:52:45.921Z,7.20
2024-03-29T06:55:12.580Z,7.40
2024-03-29T06:57:39.091Z,7.60
2024-03-29T07:00:09.281Z,7.80
2024-03-29T07:02:41.874Z,8.20
2024-03-29T07:05:11.500Z,8.50
2024-03-29T07:07:40.543Z,8.70
2024-03-29T07:10:08.004Z,8.90
2024-03-29T07:12:34.578Z,9.10
2024-03-29T07:15:01.117Z,9.20
2024-03-29T07:17:27.689Z,9.30
2024-03-29T07:19:54.316Z,9.30
2024-03-29T07:22:31.609Z,9.30
2024-03-29T07:25:03.594Z,9.20
2024-03-29T07:27:34.060Z,9.20
2024-03-29T07:30:00.915Z,9.30
2024-03-29T07:32:27.463Z,9.40
2024-03-29T07:34:57.168Z,9.60
2024-03-29T07:37:23.698Z,9.90
2024-03-29T07:39:50.241Z,10.00
2024-03-29T07:42:16.819Z,10.10
2024-03-29T07:44:43.761Z,10.20
2024-03-29T07:47:10.298Z,10.10
2024-03-29T07:49:38.603Z,10.00
2024-03-29T07:52:08.357Z,10.20
2024-03-29T07:54:35.431Z,10.40
2024-03-29T07:57:02.278Z,10.50
2024-03-29T07:59:29.222Z,10.70
2024-03-29T08:01:56.372Z,10.80
2024-03-29T08:04:23.801Z,10.80
2024-03-29T08:06:53.010Z,10.90
2024-03-29T08:09:20.080Z,11.30
2024-03-29T08:11:46.616Z,11.50
2024-03-29T08:14:20.552Z,11.60
2024-03-29T08:16:47.092Z,11.70
2024-03-29T08:19:13.595Z,11.70
2024-03-29T08:21:40.133Z,11.60
2024-03-29T08:24:06.927Z,11.60
2024-03-29T08:26:33.473Z,11.60
2024-03-29T08:29:01.085Z,11.70
2024-03-29T08:31:27.720Z,11.80
2024-03-29T08:34:01.510Z,11.80
2024-03-29T08:36:30.482Z,11.80
2024-03-29T08:38:57.079Z,11.70
2024-03-29T08:41:23.653Z,11.50
2024-03-29T08:43:50.169Z,11.40
2024-03-29T08:46:16.734Z,11.60
2024-03-29T08:48:44.347Z,11.60
2024-03-29T08:51:10.881Z,11.80
2024-03-29T08:53:37.448Z,11.80
2024-03-29T08:56:04.602Z,12.00
2024-03-29T08:58:31.183Z,12.30
2024-03-29T09:00:57.788Z,12.50
2024-03-29T09:03:25.278Z,12.70
2024-03-29T09:05:52.724Z,12.90
2024-03-29T09:08:19.589Z,13.10
2024-03-29T09:10:46.240Z,13.30
2024-03-29T09:13:13.039Z,13.50
2024-03-29T09:15:39.846Z,13.90
2024-03-29T09:18:22.383Z,14.00
2024-03-29T09:21:00.420Z,14.30
2024-03-29T09:23:29.850Z,14.50
2024-03-29T09:25:59.305Z,14.50
2024-03-29T09:28:26.970Z,14.50
2024-03-29T09:30:59.447Z,14.70
2024-03-29T09:33:25.989Z,14.90
2024-03-29T09:35:54.311Z,14.90
2024-03-29T09:38:21.636Z,14.60
2024-03-29T09:41:14.900Z,14.40
2024-03-29T09:43:46.367Z,14.30
2024-03-29T09:46:17.014Z,14.10
2024-03-29T09:48:48.904Z,14.00
2024-03-29T09:51:16.517Z,13.80
2024-03-29T09:53:47.752Z,13.70
2024-03-29T09:56:15.473Z,13.50
2024-03-29T09:58:42.091Z,13.50
2024-03-29T10:01:11.109Z,13.50
2024-03-29T10:03:48.737Z,13.30
2024-03-29T10:06:15.926Z,13.40
2024-03-29T10:08:42.450Z,13.50
2024-03-29T10:11:10.353Z,13.60
2024-03-29T10:13:37.975Z,13.80
2024-03-29T10:16:05.496Z,14.00
2024-03-29T10:18:32.066Z,14.10
2024-03-29T10:21:09.606Z,14.40
2024-03-29T10:23:36.782Z,14.50
2024-03-29T10:26:04.208Z,14.90
2024-03-29T10:28:36.612Z,15.00
2024-03-29T10:31:05.037Z,15.10
2024-03-29T10:33:32.954Z,15.10
2024-03-29T10:36:08.216Z,15.00
2024-03-29T10:38:36.439Z,14.90
2024-03-29T10:41:06.434Z,15.00
2024-03-29T10:43:34.294Z,15.10
2024-03-29T10:46:01.675Z,15.30
2024-03-29T10:48:28.685Z,15.20
2024-03-29T10:50:57.721Z,15.10
2024-03-29T10:53:27.973Z,15.10
2024-03-29T10:56:01.502Z,15.30
2024-03-29T10:58:36.005Z,15.40
2024-03-29T11:01:07.270Z,15.50
2024-03-29T11:03:50.805Z,15.40
2024-03-29T11:06:24.379Z,15.70
2024-03-29T11:08:54.867Z,15.80
2024-03-29T11:11:25.465Z,15.50
2024-03-29T11:14:15.306Z,15.10
2024-03-29T11:16:45.560Z,15.00
2024-03-29T11:19:16.209Z,15.00
2024-03-29T11:21:46.095Z,15.00
2024-03-29T11:24:12.696Z,15.20
2024-03-29T11:26:39.321Z,15.50
2024-03-29T11:29:05.856Z,15.60
2024-03-29T11:31:39.075Z,15.70
2024-03-29T11:34:10.162Z,15.70
2024-03-29T11:36:40.176Z,15.70
2024-03-29T11:39:06.727Z,15.40
2024-03-29T11:41:33.281Z,15.30
2024-03-29T11:44:00.124Z,15.10
2024-03-29T11:46:26.927Z,15.10
2024-03-29T11:48:55.889Z,15.10
2024-03-29T11:51:26.691Z,15.20
2024-03-29T11:53:53.283Z,15.20
2024-03-29T11:56:20.380Z,15.10
2024-03-29T11:58:49.249Z,15.20
2024-03-29T12:01:16.891Z,15.20
2024-03-29T12:03:44.430Z,15.40
2024-03-29T12:06:11.760Z,15.40
2024-03-29T12:08:43.135Z,15.40
2024-03-29T12:11:10.296Z,15.30
2024-03-29T12:13:37.086Z,15.30
2024-03-29T12:16:04.181Z,15.30
2024-03-29T12:18:33.491Z,15.30
2024-03-29T12:21:00.278Z,15.20
2024-03-29T12:23:26.938Z,15.10
2024-03-29T12:25:58.966Z,15.10
2024-03-29T12:28:27.240Z,15.30
2024-03-29T12:30:55.392Z,15.30
2024-03-29T12:33:23.248Z,15.40
2024-03-29T12:35:55.428Z,15.50
2024-03-29T12:38:23.476Z,15.80
2024-03-29T12:40:53.175Z,15.90
2024-03-29T12:43:23.971Z,16.20
2024-03-29T12:45:51.867Z,16.20
2024-03-29T12:48:21.285Z,16.30
2024-03-29T12:50:48.811Z,16.50
2024-03-29T12:53:17.029Z,16.50
2024-03-29T12:55:46.204Z,16.60
2024-03-29T12:58:20.539Z,16.70
2024-03-29T13:00:47.185Z,16.70
2024-03-29T13:03:13.910Z,16.50
2024-03-29T13:05:41.432Z,16.40
2024-03-29T13:08:15.667Z,16.40
2024-03-29T13:10:43.753Z,16.30
2024-03-29T13:13:11.332Z,16.20
2024-03-29T13:15:39.864Z,16.10
2024-03-29T13:18:07.328Z,16.10
2024-03-29T13:20:41.304Z,16.20
2024-03-29T13:23:08.094Z,16.10
2024-03-29T13:25:35.525Z,16.20
2024-03-29T13:28:02.254Z,16.10
2024-03-29T13:30:29.264Z,16.10
2024-03-29T13:32:55.813Z,16.10
2024-03-29T13:35:22.573Z,16.20
2024-03-29T13:37:53.789Z,16.10
2024-03-29T13:40:26.804Z,16.20
2024-03-29T13:42:53.314Z,16.10
2024-03-29T13:45:20.715Z,16.10
2024-03-29T13:47:47.711Z,16.20
2024-03-29T13:50:15.766Z,16.20
2024-03-29T13:52:47.109Z,16.20
2024-03-29T13:55:13.688Z,16.30
2024-03-29T13:57:41.265Z,16.40
2024-03-29T14:00:08.938Z,16.50
2024-03-29T14:02:35.572Z,16.50
2024-03-29T14:05:02.228Z,16.60
2024-03-29T14:07:29.022Z,16.70
2024-03-29T14:09:55.594Z,16.90
2024-03-29T14:12:23.630Z,16.80
2024-03-29T14:14:53.133Z,16.90
2024-03-29T14:17:19.773Z,16.80
2024-03-29T14:19:46.421Z,16.90
2024-03-29T14:22:15.837Z,17.00
2024-03-29T14:24:42.701Z,17.00
2024-03-29T14:27:09.310Z,17.00
2024-03-29T14:29:36.168Z,16.80
2024-03-29T14:32:04.731Z,16.90
2024-03-29T14:34:38.082Z,16.80
2024-03-29T14:37:04.766Z,16.70
2024-03-29T14:39:31.336Z,16.70
2024-03-29T14:41:58.954Z,16.60
2024-03-29T14:44:25.510Z,16.60
2024-03-29T14:46:52.077Z,16.60
2024-03-29T14:49:20.077Z,16.60
2024-03-29T14:51:46.615Z,16.60
2024-03-29T14:54:13.540Z,16.60
2024-03-29T14:56:40.692Z,16.60
2024-03-29T14:59:12.117Z,16.70
2024-03-29T15:01:38.796Z,16.60
2024-03-29T15:04:05.362Z,16.60
2024-03-29T15:06:32.125Z,16.60
2024-03-29T15:08:59.403Z,16.60
2024-03-29T15:11:27.033Z,16.60
2024-03-29T15:13:53.787Z,16.70
2024-03-29T15:16:21.024Z,16.60
2024-03-29T15:18:48.225Z,16.60
2024-03-29T15:21:14.739Z,16.70
2024-03-29T15:23:41.323Z,16.70
2024-03-29T15:26:09.000Z,16.70
2024-03-29T15:28:54.106Z,16.80
2024-03-29T15:31:22.287Z,16.90
2024-03-29T15:33:50.886Z,16.90
2024-03-29T15:36:18.116Z,16.80
2024-03-29T15:38:45.498Z,16.90
2024-03-29T15:41:12.822Z,16.90
2024-03-29T15:43:40.001Z,16.70
2024-03-29T15:46:07.015Z,16.70
2024-03-29T15:48:33.596Z,16.70
2024-03-29T15:51:00.176Z,16.80
2024-03-29T15:53:26.739Z,16.80
2024-03-29T15:55:53.288Z,16.80
2024-03-29T15:58:20.822Z,16.80
2024-03-29T16:00:47.928Z,16.90
2024-03-29T16:03:15.843Z,16.90
2024-03-29T16:05:46.609Z,16.90
2024-03-29T16:08:14.347Z,16.90
2024-03-29T16:11:04.047Z,16.90
2024-03-29T16:13:32.764Z,16.90
2024-03-29T16:16:02.796Z,17.00
2024-03-29T16:18:32.375Z,16.80
2024-03-29T16:21:00.201Z,16.90
2024-03-29T16:23:27.588Z,16.80
2024-03-29T16:25:55.654Z,16.70
2024-03-29T16:28:23.054Z,16.70
2024-03-29T16:30:51.178Z,16.70
2024-03-29T16:33:18.073Z,16.80
2024-03-29T16:35:45.205Z,16.90
2024-03-29T16:38:12.742Z,16.80
2024-03-29T16:40:40.428Z,16.70
2024-03-29T16:43:12.898Z,16.60
2024-03-29T16:45:41.113Z,16.60
2024-03-29T16:48:09.088Z,16.60
2024-03-29T16:50:37.321Z,16.60
2024-03-29T16:53:04.292Z,16.60
2024-03-29T16:55:32.167Z,16.30
2024-03-29T16:57:59.146Z,16.20
2024-03-29T17:00:25.828Z,16.10
2024-03-29T17:02:53.652Z,16.00
2024-03-29T17:05:20.308Z,16.00
2024-03-29T17:07:46.879Z,15.90
2024-03-29T17:10:13.416Z,15.90
2024-03-29T17:12:39.978Z,16.00
2024-03-29T17:15:07.263Z,16.00
2024-03-29T17:17:33.804Z,16.00
2024-03-29T17:20:00.463Z,15.90
2024-03-29T17:22:27.085Z,15.90
2024-03-29T17:24:55.541Z,15.80
2024-03-29T17:27:22.575Z,15.80
2024-03-29T17:29:49.101Z,15.80
2024-03-29T17:32:16.554Z,15.70
2024-03-29T17:34:43.083Z,15.70
2024-03-29T17:37:09.651Z,15.80
2024-03-29T17:39:36.162Z,15.80
2024-03-29T17:42:03.776Z,15.80
2024-03-29T17:44:30.833Z,15.80
2024-03-29T17:46:57.416Z,15.70
2024-03-29T17:49:23.924Z,15.60
2024-03-29T17:51:50.493Z,15.60
2024-03-29T17:54:17.008Z,15.60
2024-03-29T17:56:43.522Z,15.60
2024-03-29T17:59:10.095Z,15.50
2024-03-29T18:01:36.633Z,15.40
2024-03-29T18:04:03.892Z,15.30
2024-03-29T18:06:31.398Z,15.30
2024-03-29T18:08:58.096Z,15.30
2024-03-29T18:11:24.624Z,15.50
2024-03-29T18:13:52.374Z,15.60
2024-03-29T18:16:18.902Z,15.70
2024-03-29T18:18:49.846Z,15.90
2024-03-29T18:21:16.395Z,16.00
2024-03-29T18:23:42.970Z,16.00
2024-03-29T18:26:09.538Z,16.00
2024-03-29T18:28:39.133Z,16.00
2024-03-29T18:31:11.792Z,16.10
2024-03-29T18:33:38.557Z,16.10
2024-03-29T18:36:08.607Z,16.00
2024-03-29T18:38:36.871Z,16.00
2024-03-29T18:41:04.103Z,15.90
2024-03-29T18:43:30.672Z,15.80
2024-03-29T18:45:58.536Z,15.80
2024-03-29T18:48:26.951Z,15.90
2024-03-29T18:50:58.132Z,15.80
2024-03-29T18:53:25.107Z,16.00
2024-03-29T18:56:00.944Z,16.00
2024-03-29T18:58:28.887Z,15.80
2024-03-29T19:00:56.084Z,15.80
2024-03-29T19:03:26.609Z,15.80
2024-03-29T19:05:54.873Z,15.90
2024-03-29T19:08:23.790Z,15.90
2024-03-29T19:10:50.366Z,15.90
2024-03-29T19:13:17.138Z,15.90
2024-03-29T19:15:44.913Z,15.90
2024-03-29T19:18:13.321Z,16.00
2024-03-29T19:20:40.515Z,16.00
2024-03-29T19:23:07.082Z,15.90
2024-03-29T19:25:33.722Z,15.90
2024-03-29T19:28:01.880Z,15.90
2024-03-29T19:30:28.506Z,15.80
2024-03-29T19:33:00.396Z,15.80
2024-03-29T19:35:27.689Z,15.70
2024-03-29T19:37:56.467Z,15.80
2024-03-29T19:40:23.335Z,15.70
2024-03-29T19:42:49.901Z,15.90
2024-03-29T19:45:16.947Z,15.90
2024-03-29T19:47:53.385Z,16.00
2024-03-29T19:50:23.687Z,15.90
2024-03-29T19:52:50.264Z,15.90
2024-03-29T19:55:19.592Z,15.90
2024-03-29T19:57:46.831Z,15.90
2024-03-29T20:00:14.342Z,16.00
2024-03-29T20:02:41.749Z,16.10
2024-03-29T20:05:08.509Z,16.00
2024-03-29T20:07:35.033Z,16.10
2024-03-29T20:10:01.840Z,16.20
2024-03-29T20:12:29.367Z,16.10
2024-03-29T20:14:56.201Z,16.00
2024-03-29T20:17:22.783Z,15.90
2024-03-29T20:19:49.295Z,15.90
2024-03-29T20:22:15.855Z,15.90
2024-03-29T20:24:44.477Z,15.90
2024-03-29T20:27:11.151Z,15.90
2024-03-29T20:29:37.693Z,16.00
2024-03-29T20:32:06.734Z,16.00
2024-03-29T20:34:38.114Z,16.00
2024-03-29T20:37:09.676Z,15.90
2024-03-29T20:39:37.219Z,15.90
2024-03-29T20:42:03.938Z,16.00
2024-03-29T20:44:30.507Z,16.00
2024-03-29T20:46:59.365Z,16.10
2024-03-29T20:49:27.503Z,16.00
2024-03-29T20:51:54.022Z,16.10
2024-03-29T20:54:20.561Z,16.10
2024-03-29T20:56:47.302Z,16.20
2024-03-29T20:59:15.766Z,16.20
2024-03-29T21:02:03.700Z,16.10
2024-03-29T21:04:48.655Z,16.30
2024-03-29T21:07:15.167Z,16.40
2024-03-29T21:09:42.504Z,16.20
2024-03-29T21:12:09.054Z,16.00
2024-03-29T21:14:35.618Z,15.80
2024-03-29T21:17:02.146Z,15.90
2024-03-29T21:19:28.692Z,15.90
2024-03-29T21:21:55.428Z,15.90
2024-03-29T21:24:21.985Z,15.90
2024-03-29T21:26:48.521Z,16.00
2024-03-29T21:29:15.064Z,16.00
2024-03-29T21:31:41.648Z,16.00
2024-03-29T21:34:08.372Z,15.80
2024-03-29T21:36:34.878Z,15.90
2024-03-29T21:39:01.409Z,15.90
2024-03-29T21:41:27.984Z,15.80
2024-03-29T21:43:54.519Z,15.60
2024-03-29T21:46:21.082Z,15.60
2024-03-29T21:48:47.651Z,15.50
2024-03-29T21:51:14.961Z,15.40
2024-03-29T21:53:41.537Z,15.30
2024-03-29T21:56:08.546Z,15.30
2024-03-29T21:58:44.799Z,15.30
2024-03-29T22:01:20.248Z,15.30
2024-03-29T22:03:47.412Z,15.20
2024-03-29T22:06:13.975Z,15.10
2024-03-29T22:08:40.764Z,15.30
2024-03-29T22:11:10.119Z,15.40
2024-03-29T22:13:36.635Z,15.50
2024-03-29T22:16:03.361Z,15.60
2024-03-29T22:18:29.881Z,15.60
2024-03-29T22:20:56.457Z,15.60
2024-03-29T22:23:22.978Z,15.70
2024-03-29T22:25:49.938Z,15.70
2024-03-29T22:28:16.455Z,15.70
2024-03-29T22:30:43.639Z,15.60
2024-03-29T22:33:10.972Z,15.40
2024-03-29T22:35:38.200Z,15.30
2024-03-29T22:38:04.908Z,15.30
2024-03-29T22:40:31.685Z,15.30
2024-03-29T22:42:58.197Z,15.40
2024-03-29T22:45:24.722Z,15.20
2024-03-29T22:47:51.303Z,15.10
2024-03-29T22:50:17.893Z,14.90
2024-03-29T22:52:47.981Z,14.90
2024-03-29T22:55:14.618Z,14.90
2024-03-29T22:57:41.156Z,14.90
2024-03-29T23:00:13.068Z,15.00
2024-03-29T23:02:40.086Z,15.00
2024-03-29T23:05:06.720Z,15.00
2024-03-29T23:07:34.951Z,15.10
2024-03-29T23:10:02.423Z,15.20
2024-03-29T23:12:28.959Z,15.10
2024-03-29T23:14:55.582Z,15.00
2024-03-29T23:17:22.770Z,14.90
2024-03-29T23:19:52.939Z,14.90
2024-03-29T23:22:21.019Z,15.00
2024-03-29T23:24:53.784Z,15.00
2024-03-29T23:27:20.318Z,15.10
2024-03-29T23:29:47.093Z,15.20
2024-03-29T23:32:13.728Z,15.30
2024-03-29T23:34:40.262Z,15.30
2024-03-29T23:37:06.815Z,15.40
2024-03-29T23:39:33.350Z,15.50
2024-03-29T23:41:59.930Z,15.40
2024-03-29T23:44:26.481Z,15.50
2024-03-29T23:46:53.017Z,15.50
2024-03-29T23:49:19.518Z,15.40
2024-03-29T23:51:46.106Z,15.50
2024-03-29T23:54:12.617Z,15.60
2024-03-29T23:56:39.135Z,15.50
2024-03-29T23:59:05.687Z,15.40
